createdAt,value
2019-01-16T00:00:00.593Z,5.10
2019-01-16T00:02:31.083Z,5.10
2019-01-16T00:05:17.934Z,5.10
2019-01-16T00:07:51.126Z,5.10
2019-01-16T00:10:30.265Z,5.10
2019-01-16T00:13:13.177Z,5.10
2019-01-16T00:15:46.572Z,5.10
2019-01-16T00:18:17.417Z,5.10
2019-01-16T00:20:53.980Z,5.10
2019-01-16T00:23:39.662Z,5.10
2019-01-16T00:26:19.104Z,5.10
2019-01-16T00:28:55.371Z,5.10
2019-01-16T00:31:25.894Z,5.10
2019-01-16T00:34:08.404Z,5.10
2019-01-16T00:36:56.853Z,5.10
2019-01-16T00:39:30.250Z,5.10
2019-01-16T00:42:15.524Z,5.10
2019-01-16T00:44:54.862Z,5.10
2019-01-16T00:47:31.638Z,5.10
2019-01-16T00:50:14.543Z,5.10
2019-01-16T00:52:53.855Z,5.10
2019-01-16T00:55:39.781Z,5.10
2019-01-16T00:58:10.312Z,5.10
2019-01-16T01:00:46.986Z,5.10
2019-01-16T01:03:17.513Z,5.10
2019-01-16T01:05:48.040Z,5.00
2019-01-16T01:08:35.159Z,5.10
2019-01-16T01:11:05.690Z,5.00
2019-01-16T01:13:37.753Z,5.00
2019-01-16T01:16:09.204Z,5.10
2019-01-16T01:18:40.975Z,5.10
2019-01-16T01:21:17.635Z,5.10
2019-01-16T01:24:04.553Z,5.10
2019-01-16T01:26:34.969Z,5.10
2019-01-16T01:29:11.854Z,5.10
2019-01-16T01:31:42.381Z,5.20
2019-01-16T01:34:25.000Z,5.30
2019-01-16T01:37:07.812Z,5.30
2019-01-16T01:39:56.465Z,5.40
2019-01-16T01:42:33.037Z,5.50
2019-01-16T01:45:18.929Z,5.60
2019-01-16T01:48:04.305Z,5.60
2019-01-16T01:50:37.503Z,5.60
2019-01-16T01:53:24.612Z,5.70
2019-01-16T01:56:01.389Z,5.70
2019-01-16T01:58:34.682Z,5.70
2019-01-16T02:01:05.213Z,5.60
2019-01-16T02:03:53.768Z,5.70
2019-01-16T02:06:27.161Z,5.60
2019-01-16T02:09:15.711Z,5.70
2019-01-16T02:11:52.181Z,5.70
2019-01-16T02:14:22.606Z,5.70
2019-01-16T02:16:59.182Z,5.70
2019-01-16T02:19:41.999Z,5.80
2019-01-16T02:22:15.390Z,5.80
2019-01-16T02:24:48.895Z,5.80
2019-01-16T02:27:19.421Z,5.80
2019-01-16T02:30:01.727Z,5.90
2019-01-16T02:32:34.931Z,5.80
2019-01-16T02:35:17.540Z,5.80
2019-01-16T02:37:48.059Z,5.80
2019-01-16T02:40:34.912Z,5.80
2019-01-16T02:43:08.985Z,5.80
2019-01-16T02:45:48.524Z,5.90
2019-01-16T02:48:34.416Z,5.90
2019-01-16T02:51:16.962Z,5.90
2019-01-16T02:54:04.145Z,5.80
2019-01-16T02:56:34.671Z,5.90
2019-01-16T02:59:07.864Z,5.90
2019-01-16T03:01:38.394Z,5.90
2019-01-16T03:04:14.961Z,6.00
2019-01-16T03:06:57.679Z,6.00
2019-01-16T03:09:37.014Z,6.00
2019-01-16T03:12:07.541Z,6.00
2019-01-16T03:14:40.839Z,6.00
2019-01-16T03:17:11.369Z,6.00
2019-01-16T03:19:58.076Z,6.00
2019-01-16T03:22:28.707Z,5.90
2019-01-16T03:25:17.564Z,5.90
2019-01-16T03:27:48.094Z,5.80
2019-01-16T03:30:36.851Z,5.80
2019-01-16T03:33:13.118Z,5.90
2019-01-16T03:35:58.694Z,5.90
2019-01-16T03:38:45.509Z,5.90
2019-01-16T03:41:16.038Z,5.90
2019-01-16T03:43:49.432Z,5.90
2019-01-16T03:46:28.974Z,5.90
2019-01-16T03:49:13.123Z,5.80
2019-01-16T03:51:43.444Z,5.80
2019-01-16T03:54:19.708Z,5.90
2019-01-16T03:56:53.002Z,5.90
2019-01-16T03:59:26.709Z,5.90
2019-01-16T04:02:12.700Z,5.90
2019-01-16T04:04:55.312Z,5.90
2019-01-16T04:07:25.842Z,5.90
2019-01-16T04:10:11.318Z,5.80
2019-01-16T04:12:41.850Z,5.80
2019-01-16T04:15:28.557Z,5.80
2019-01-16T04:18:15.372Z,5.90
2019-01-16T04:20:48.868Z,5.90
2019-01-16T04:23:19.299Z,5.90
2019-01-16T04:25:49.720Z,5.90
2019-01-16T04:28:28.850Z,6.00
2019-01-16T04:30:59.393Z,6.00
2019-01-16T04:33:29.914Z,6.00
2019-01-16T04:36:16.616Z,6.10
2019-01-16T04:38:59.131Z,6.10
2019-01-16T04:41:32.421Z,6.20
2019-01-16T04:44:05.923Z,6.20
2019-01-16T04:46:45.405Z,6.20
2019-01-16T04:49:18.857Z,6.20
2019-01-16T04:51:56.306Z,6.20
2019-01-16T04:54:52.029Z,6.20
2019-01-16T04:57:25.626Z,6.10
2019-01-16T04:59:56.098Z,6.10
2019-01-16T05:02:26.527Z,6.20
2019-01-16T05:05:09.443Z,6.20
2019-01-16T05:07:42.430Z,6.10
2019-01-16T05:10:22.281Z,6.20
2019-01-16T05:12:55.575Z,6.20
2019-01-16T05:15:26.109Z,6.20
2019-01-16T05:17:59.702Z,6.20
2019-01-16T05:20:30.232Z,6.20
2019-01-16T05:23:06.907Z,6.20
2019-01-16T05:25:49.316Z,6.20
2019-01-16T05:28:25.575Z,6.20
2019-01-16T05:31:12.082Z,6.10
2019-01-16T05:33:48.649Z,6.10
2019-01-16T05:36:34.538Z,6.10
2019-01-16T05:39:09.581Z,6.00
2019-01-16T05:41:52.384Z,5.90
2019-01-16T05:44:22.920Z,5.90
2019-01-16T05:46:53.454Z,5.80
2019-01-16T05:49:26.745Z,5.80
2019-01-16T05:51:57.273Z,5.80
2019-01-16T05:54:43.163Z,5.80
2019-01-16T05:57:29.666Z,5.80
2019-01-16T06:00:02.964Z,5.80
2019-01-16T06:02:39.120Z,5.80
2019-01-16T06:05:19.382Z,5.80
2019-01-16T06:08:02.098Z,5.80
2019-01-16T06:10:38.772Z,5.80
2019-01-16T06:13:24.349Z,5.70
2019-01-16T06:15:54.878Z,5.70
2019-01-16T06:18:41.483Z,5.70
2019-01-16T06:21:14.778Z,5.70
2019-01-16T06:23:54.422Z,5.70
2019-01-16T06:26:34.191Z,5.80
2019-01-16T06:29:21.288Z,5.80
2019-01-16T06:32:09.941Z,5.80
2019-01-16T06:34:40.569Z,5.80
2019-01-16T06:37:14.276Z,5.80
2019-01-16T06:39:57.090Z,5.80
2019-01-16T06:42:27.516Z,5.80
2019-01-16T06:44:57.898Z,5.80
2019-01-16T06:47:31.239Z,5.80
2019-01-16T06:50:02.317Z,5.80
2019-01-16T06:52:36.087Z,5.80
2019-01-16T06:55:18.288Z,5.80
2019-01-16T06:57:54.545Z,5.70
2019-01-16T07:00:28.052Z,5.80
2019-01-16T07:03:01.655Z,5.80
2019-01-16T07:05:35.152Z,5.80
2019-01-16T07:08:20.732Z,5.80
2019-01-16T07:10:57.302Z,5.80
2019-01-16T07:13:58.047Z,5.80
2019-01-16T07:16:37.786Z,5.80
2019-01-16T07:19:08.214Z,5.90
2019-01-16T07:21:47.963Z,6.00
2019-01-16T07:24:24.528Z,6.00
2019-01-16T07:26:57.993Z,6.00
2019-01-16T07:29:40.232Z,5.90
2019-01-16T07:32:27.358Z,6.00
2019-01-16T07:35:09.959Z,6.00
2019-01-16T07:37:43.355Z,6.00
2019-01-16T07:40:25.765Z,6.00
2019-01-16T07:42:59.059Z,6.00
2019-01-16T07:45:44.741Z,6.00
2019-01-16T07:48:15.276Z,6.20
2019-01-16T07:50:48.773Z,6.30
2019-01-16T07:53:34.457Z,6.50
2019-01-16T07:56:07.615Z,6.50
2019-01-16T07:58:38.076Z,6.60
2019-01-16T08:01:08.602Z,6.70
2019-01-16T08:03:57.463Z,6.70
2019-01-16T08:06:40.380Z,6.70
2019-01-16T08:59:15.657Z,6.80
2019-01-16T09:01:54.684Z,12.00
2019-01-16T09:07:14.563Z,12.50
2019-01-16T09:09:54.230Z,13.60
2019-01-16T09:12:27.728Z,14.00
2019-01-16T09:15:14.742Z,14.20
2019-01-16T09:17:45.272Z,14.50
2019-01-16T09:20:19.081Z,14.50
2019-01-16T09:22:55.238Z,14.00
2019-01-16T09:25:40.721Z,13.40
2019-01-16T09:28:14.016Z,13.10
2019-01-16T09:30:44.544Z,12.40
2019-01-16T09:33:15.076Z,11.70
2019-01-16T09:35:45.603Z,11.30
2019-01-16T09:38:28.012Z,10.90
2019-01-16T09:41:01.505Z,10.70
2019-01-16T09:43:35.007Z,10.80
2019-01-16T09:46:11.270Z,11.20
2019-01-16T09:48:53.778Z,11.80
2019-01-16T09:51:42.432Z,12.40
2019-01-16T09:54:12.961Z,13.40
2019-01-16T09:56:55.363Z,14.20
2019-01-16T09:59:38.190Z,14.30
2019-01-16T10:02:12.301Z,13.90
2019-01-16T10:04:42.832Z,13.60
2019-01-16T10:07:28.412Z,12.80
2019-01-16T10:10:01.610Z,12.20
2019-01-16T10:12:40.937Z,11.50
2019-01-16T10:15:14.435Z,10.90
2019-01-16T10:18:04.605Z,10.30
2019-01-16T10:20:35.569Z,10.10
2019-01-16T10:23:22.170Z,10.00
2019-01-16T10:26:08.957Z,10.10
2019-01-16T10:28:55.792Z,10.10
2019-01-16T10:31:42.607Z,10.10
2019-01-16T10:34:13.020Z,10.00
2019-01-16T14:11:36.127Z,9.60
2019-01-16T14:14:19.046Z,9.20
2019-01-16T14:17:01.555Z,9.20
2019-01-16T14:19:37.819Z,9.20
2019-01-16T14:22:36.917Z,9.10
2019-01-16T14:25:17.485Z,9.00
2019-01-16T14:27:57.027Z,8.90
2019-01-16T14:30:43.628Z,8.80
2019-01-16T14:33:17.234Z,8.80
